createdAt,value
2022-12-16T00:00:15.916Z,98764.06
2022-12-16T00:02:43.421Z,98764.06
2022-12-16T00:05:10.663Z,98769.22
2022-12-16T00:07:37.977Z,98764.97
2022-12-16T00:10:06.861Z,98761.38
2022-12-16T00:12:34.094Z,98769.03
2022-12-16T00:15:01.536Z,98767.44
2022-12-16T00:17:28.736Z,98769.22
2022-12-16T00:19:55.970Z,98761.38
2022-12-16T00:22:23.930Z,98754.66
2022-12-16T00:24:51.182Z,98768.31
2022-12-16T00:27:19.368Z,98769.94
2022-12-16T00:29:46.500Z,98770.59
2022-12-16T00:32:13.652Z,98759.66
2022-12-16T00:34:40.849Z,98761.69
2022-12-16T00:37:08.004Z,98766.47
2022-12-16T00:39:35.320Z,98770.53
2022-12-16T00:42:02.511Z,98762.50
2022-12-16T00:44:29.690Z,98775.47
2022-12-16T00:46:56.902Z,98766.53
2022-12-16T00:49:24.092Z,98771.38
2022-12-16T00:51:51.205Z,98757.78
2022-12-16T00:54:18.489Z,98763.63
2022-12-16T00:56:45.804Z,98768.47
2022-12-16T00:59:13.037Z,98769.28
2022-12-16T01:01:40.497Z,98761.66
2022-12-16T01:04:07.779Z,98758.97
2022-12-16T01:06:35.557Z,98773.31
2022-12-16T01:09:03.867Z,98777.53
2022-12-16T01:11:31.308Z,98777.53
2022-12-16T01:13:59.540Z,98781.13
2022-12-16T01:16:26.760Z,98776.78
2022-12-16T01:18:56.247Z,98782.03
2022-12-16T01:21:23.626Z,98791.66
2022-12-16T01:23:50.981Z,98781.94
2022-12-16T01:26:18.742Z,98777.09
2022-12-16T01:28:49.255Z,98782.16
2022-12-16T01:31:19.084Z,98773.41
2022-12-16T01:33:47.228Z,98767.47
2022-12-16T01:36:14.372Z,98764.88
2022-12-16T01:38:44.452Z,98761.66
2022-12-16T01:41:15.425Z,98771.84
2022-12-16T01:43:45.485Z,98765.25
2022-12-16T01:46:12.561Z,98768.41
2022-12-16T01:49:01.359Z,98771.75
2022-12-16T01:51:48.841Z,98771.66
2022-12-16T01:54:26.770Z,98777.81
2022-12-16T01:57:07.177Z,98775.13
2022-12-16T01:59:39.235Z,98789.78
2022-12-16T02:02:06.949Z,98795.72
2022-12-16T02:04:34.305Z,98797.06
2022-12-16T02:07:01.984Z,98796.44
2022-12-16T02:09:29.303Z,98794.44
2022-12-16T02:12:41.429Z,98790.53
2022-12-16T02:15:41.331Z,98784.50
2022-12-16T02:18:48.660Z,98780.13
2022-12-16T02:21:46.006Z,98774.09
2022-12-16T02:24:40.872Z,98771.63
2022-12-16T02:27:30.254Z,98770.84
2022-12-16T02:30:08.744Z,98777.66
2022-12-16T02:33:03.168Z,98778.34
2022-12-16T02:36:26.107Z,98782.69
2022-12-16T02:39:17.081Z,98783.50
2022-12-16T02:41:56.566Z,98788.41
2022-12-16T02:44:45.429Z,98792.78
2022-12-16T02:47:12.866Z,98791.00
2022-12-16T02:49:50.829Z,98792.88
2022-12-16T02:52:23.483Z,98790.19
2022-12-16T02:55:01.778Z,98791.09
2022-12-16T02:58:10.781Z,98788.41
2022-12-16T03:01:15.144Z,98780.59
2022-12-16T03:04:22.614Z,98779.78
2022-12-16T03:06:52.618Z,98788.41
2022-12-16T03:09:28.616Z,98786.63
2022-12-16T03:11:57.759Z,98786.63
2022-12-16T03:14:32.239Z,98785.06
2022-12-16T03:17:00.428Z,98785.06
2022-12-16T03:19:30.326Z,98789.53
2022-12-16T03:22:14.210Z,98787.63
2022-12-16T03:24:42.152Z,98798.72
2022-12-16T03:27:55.332Z,98778.13
2022-12-16T03:30:36.192Z,98770.50
2022-12-16T03:33:31.576Z,98786.63
2022-12-16T03:36:17.016Z,98777.44
2022-12-16T03:38:47.057Z,98778.34
2022-12-16T03:41:18.554Z,98773.19
2022-12-16T03:43:46.650Z,98767.94
2022-12-16T03:46:14.749Z,98776.47
2022-12-16T03:48:51.529Z,98764.69
2022-12-16T03:51:20.659Z,98767.25
2022-12-16T03:53:47.814Z,98759.53
2022-12-16T03:56:15.018Z,98758.66
2022-12-16T03:58:42.394Z,98748.38
2022-12-16T04:01:10.997Z,98763.34
2022-12-16T04:03:38.838Z,98758.88
2022-12-16T04:06:06.423Z,98769.50
2022-12-16T04:08:33.627Z,98770.69
2022-12-16T04:11:19.644Z,98780.88
2022-12-16T04:14:05.392Z,98779.00
2022-12-16T04:16:51.491Z,98767.13
2022-12-16T04:19:43.047Z,98770.69
2022-12-16T04:22:48.725Z,98779.22
2022-12-16T04:25:22.979Z,98777.53
2022-12-16T04:27:50.399Z,98778.31
2022-12-16T04:30:20.755Z,98791.16
2022-12-16T04:33:12.173Z,98789.63
2022-12-16T04:35:58.165Z,98794.88
2022-12-16T04:38:44.854Z,98784.56
2022-12-16T04:41:30.920Z,98794.97
2022-12-16T04:44:17.089Z,98790.72
2022-12-16T04:47:02.999Z,98794.06
2022-12-16T04:49:48.541Z,98784.78
2022-12-16T04:52:35.080Z,98780.53
2022-12-16T04:55:21.187Z,98796.84
2022-12-16T04:58:16.069Z,98796.19
2022-12-16T05:01:03.632Z,98795.28
2022-12-16T05:03:50.173Z,98800.56
2022-12-16T05:06:36.614Z,98799.75
2022-12-16T05:09:24.740Z,98786.13
2022-12-16T05:12:10.809Z,98788.81
2022-12-16T05:14:56.424Z,98791.47
2022-12-16T05:17:42.934Z,98792.25
2022-12-16T05:20:29.560Z,98790.59
2022-12-16T05:23:16.136Z,98780.38
2022-12-16T05:26:02.141Z,98787.31
2022-12-16T05:28:48.108Z,98788.13
2022-12-16T05:31:34.104Z,98784.84
2022-12-16T05:34:19.883Z,98795.94
2022-12-16T05:37:05.775Z,98795.94
2022-12-16T05:39:51.623Z,98790.22
2022-12-16T05:42:37.550Z,98792.03
2022-12-16T05:45:24.035Z,98800.63
2022-12-16T05:48:09.919Z,98796.38
2022-12-16T05:50:56.025Z,98794.81
2022-12-16T05:53:41.589Z,98788.84
2022-12-16T05:56:27.504Z,98798.34
2022-12-16T05:59:13.408Z,98799.47
2022-12-16T06:01:59.516Z,98803.94
2022-12-16T06:04:45.269Z,98790.94
2022-12-16T06:07:31.196Z,98798.03
2022-12-16T06:10:17.066Z,98797.13
2022-12-16T06:13:06.429Z,98794.84
2022-12-16T06:15:52.494Z,98791.69
2022-12-16T06:18:38.180Z,98795.38
2022-12-16T06:21:24.365Z,98791.13
2022-12-16T06:24:09.985Z,98790.22
2022-12-16T06:26:55.871Z,98790.22
2022-12-16T06:29:41.995Z,98801.44
2022-12-16T06:32:27.564Z,98798.97
2022-12-16T06:35:13.493Z,98807.56
2022-12-16T06:37:59.316Z,98810.94
2022-12-16T06:40:45.327Z,98815.28
2022-12-16T06:43:31.674Z,98808.38
2022-12-16T06:46:18.120Z,98814.53
2022-12-16T06:49:04.041Z,98807.56
2022-12-16T06:51:49.929Z,98810.25
2022-12-16T06:54:35.948Z,98808.56
2022-12-16T06:57:21.841Z,98811.38
2022-12-16T07:00:08.017Z,98814.84
2022-12-16T07:02:54.091Z,98826.94
2022-12-16T07:05:40.308Z,98830.19
2022-12-16T07:08:26.034Z,98830.41
2022-12-16T07:11:16.521Z,98838.91
2022-12-16T07:14:03.566Z,98835.66
2022-12-16T07:16:54.333Z,98835.56
2022-12-16T07:19:40.475Z,98837.44
2022-12-16T07:22:26.494Z,98840.13
2022-12-16T07:25:12.313Z,98843.50
2022-12-16T07:27:58.333Z,98833.41
2022-12-16T07:30:44.256Z,98840.34
2022-12-16T07:33:30.486Z,98837.75
2022-12-16T07:36:16.792Z,98838.78
2022-12-16T07:39:02.607Z,98839.19
2022-12-16T07:41:48.777Z,98842.09
2022-12-16T07:44:34.796Z,98847.91
2022-12-16T07:47:20.752Z,98852.28
2022-12-16T07:50:06.900Z,98852.59
2022-12-16T07:52:52.421Z,98858.84
2022-12-16T07:55:41.432Z,98865.69
2022-12-16T07:58:28.909Z,98873.53
2022-12-16T08:01:14.817Z,98876.53
2022-12-16T08:04:01.102Z,98881.69
2022-12-16T08:06:47.251Z,98879.31
2022-12-16T08:09:32.817Z,98887.16
2022-12-16T08:12:18.943Z,98884.09
2022-12-16T08:15:04.520Z,98890.03
2022-12-16T08:17:50.509Z,98893.03
2022-12-16T08:20:38.694Z,98899.75
2022-12-16T08:23:24.720Z,98905.94
2022-12-16T08:26:10.782Z,98912.88
2022-12-16T08:29:02.027Z,98909.69
2022-12-16T08:32:00.122Z,98911.91
2022-12-16T08:34:46.044Z,98925.47
2022-12-16T08:37:32.043Z,98933.50
2022-12-16T08:40:34.918Z,98933.59
2022-12-16T08:43:22.966Z,98927.56
2022-12-16T08:46:12.785Z,98928.03
2022-12-16T08:48:58.989Z,98930.03
2022-12-16T08:51:44.582Z,98924.00
2022-12-16T08:54:31.201Z,98931.63
2022-12-16T08:57:17.417Z,98940.13
2022-12-16T09:00:03.380Z,98948.69
2022-12-16T09:02:49.365Z,98946.19
2022-12-16T09:05:35.573Z,98957.34
2022-12-16T09:08:23.503Z,98949.00
2022-12-16T09:11:09.682Z,98948.69
2022-12-16T09:13:55.200Z,98952.38
2022-12-16T09:16:41.172Z,98958.56
2022-12-16T09:19:28.821Z,98960.53
2022-12-16T09:22:14.823Z,98962.53
2022-12-16T09:25:00.719Z,98965.63
2022-12-16T09:27:46.880Z,98969.91
2022-12-16T09:30:32.870Z,98973.50
2022-12-16T09:33:21.381Z,98981.22
2022-12-16T09:36:07.386Z,98984.50
2022-12-16T09:38:53.196Z,98977.66
2022-12-16T09:42:03.837Z,98978.53
2022-12-16T09:45:37.421Z,98980.34
2022-12-16T09:48:44.058Z,98982.13
2022-12-16T09:51:31.852Z,98983.88
2022-12-16T09:54:20.345Z,98990.16
2022-12-16T09:57:07.291Z,98980.34
2022-12-16T10:00:00.305Z,98982.72
2022-12-16T10:02:46.617Z,98986.31
2022-12-16T10:05:38.106Z,98977.75
2022-12-16T10:08:40.297Z,98983.13
2022-12-16T10:12:08.324Z,98972.41
2022-12-16T10:15:09.085Z,98965.75
2022-12-16T10:18:02.911Z,98969.41
2022-12-16T10:21:30.254Z,98979.75
2022-12-16T10:24:59.757Z,98981.03
2022-12-16T10:28:07.383Z,98980.66
2022-12-16T10:30:56.928Z,98991.38
2022-12-16T10:33:47.438Z,98980.13
2022-12-16T10:36:42.247Z,98985.50
2022-12-16T10:39:57.040Z,98989.66
2022-12-16T10:42:55.687Z,98981.03
2022-12-16T10:45:55.433Z,98972.00
2022-12-16T10:48:55.118Z,98983.22
2022-12-16T10:51:47.119Z,98979.13
2022-12-16T10:54:42.648Z,98964.03
2022-12-16T10:57:52.080Z,98961.66
2022-12-16T11:01:04.920Z,98966.81
2022-12-16T11:03:54.634Z,98968.03
2022-12-16T11:06:58.360Z,98973.00
2022-12-16T11:09:51.071Z,98977.06
2022-12-16T11:12:50.897Z,98988.19
2022-12-16T11:15:41.922Z,98990.88
2022-12-16T11:18:37.993Z,98989.47
2022-12-16T11:21:37.914Z,98980.25
2022-12-16T11:24:35.224Z,98984.34
2022-12-16T11:27:42.457Z,98985.72
2022-12-16T11:30:37.720Z,98989.47
2022-12-16T11:33:42.376Z,98980.34
2022-12-16T11:36:42.213Z,98976.94
2022-12-16T11:39:36.748Z,98968.41
2022-12-16T11:42:25.388Z,98974.06
2022-12-16T11:45:17.549Z,98967.59
2022-12-16T11:48:50.496Z,98969.41
2022-12-16T11:51:37.805Z,98962.44
2022-12-16T11:54:42.599Z,98956.09
2022-12-16T11:58:06.407Z,98957.06
2022-12-16T12:01:04.328Z,98960.84
2022-12-16T12:04:01.039Z,98959.06
2022-12-16T12:07:33.957Z,98957.66
2022-12-16T12:11:14.661Z,98955.41
2022-12-16T12:14:50.023Z,98953.50
2022-12-16T12:18:01.344Z,98949.56
2022-12-16T12:21:17.210Z,98955.78
2022-12-16T12:25:15.325Z,98951.34
2022-12-16T12:28:55.785Z,98946.19
2022-12-16T12:32:59.615Z,98948.97
2022-12-16T12:36:23.400Z,98958.41
2022-12-16T12:39:39.162Z,98956.13
2022-12-16T12:43:03.994Z,98962.28
2022-12-16T12:46:27.829Z,98952.44
2022-12-16T12:49:41.257Z,98958.22
2022-12-16T12:53:11.977Z,98952.75
2022-12-16T12:56:29.801Z,98960.88
2022-12-16T12:59:23.225Z,98958.28
2022-12-16T13:02:12.368Z,98963.97
2022-12-16T13:04:59.113Z,98962.69
2022-12-16T13:07:45.164Z,98968.91
2022-12-16T13:10:42.893Z,98968.53
2022-12-16T13:13:34.920Z,98973.00
2022-12-16T13:16:29.424Z,98965.38
2022-12-16T13:19:49.389Z,98970.53
2022-12-16T13:22:55.846Z,98965.16
2022-12-16T13:26:09.546Z,98964.06
2022-12-16T13:29:00.125Z,98968.91
2022-12-16T13:31:49.073Z,98975.59
2022-12-16T13:34:34.610Z,98980.56
2022-12-16T13:37:28.515Z,98977.16
2022-12-16T13:40:41.550Z,98978.25
2022-12-16T13:44:11.580Z,98976.00
2022-12-16T13:47:14.165Z,98971.22
2022-12-16T13:50:09.042Z,98974.00
2022-12-16T13:53:16.522Z,98974.69
2022-12-16T13:56:15.301Z,98975.91
2022-12-16T13:59:12.493Z,98978.97
2022-12-16T14:02:21.609Z,98982.34
2022-12-16T14:05:12.983Z,98991.09
2022-12-16T14:07:59.924Z,98987.47
2022-12-16T14:10:57.052Z,98991.88
2022-12-16T14:13:49.067Z,99000.19
2022-12-16T14:17:03.000Z,99007.78
2022-12-16T14:20:35.702Z,99008.38
2022-12-16T14:24:13.102Z,99000.72
2022-12-16T14:26:59.110Z,99005.38
2022-12-16T14:29:50.547Z,99007.00
2022-12-16T14:32:52.658Z,99017.63
2022-12-16T14:35:43.916Z,99009.16
2022-12-16T14:38:47.585Z,99017.72
2022-12-16T14:41:44.004Z,99017.91
2022-12-16T14:44:43.934Z,99029.41
2022-12-16T14:47:40.806Z,99030.53
2022-12-16T14:50:48.289Z,99036.31
2022-12-16T14:53:41.864Z,99033.72
2022-12-16T14:56:41.695Z,99034.50
2022-12-16T14:59:34.125Z,99042.66
2022-12-16T15:02:53.266Z,99050.50
2022-12-16T15:05:55.543Z,99061.56
2022-12-16T15:08:43.052Z,99062.94
2022-12-16T15:11:34.918Z,99063.03
2022-12-16T15:14:22.032Z,99061.84
2022-12-16T15:17:10.716Z,99072.50
2022-12-16T15:20:09.717Z,99075.75
2022-12-16T15:22:57.041Z,99078.63
2022-12-16T15:25:45.948Z,99086.50
2022-12-16T15:29:01.377Z,99086.59
2022-12-16T15:32:01.377Z,99094.03
2022-12-16T15:35:07.269Z,99094.03
2022-12-16T15:38:04.534Z,99100.13
2022-12-16T15:40:52.696Z,99095.75
2022-12-16T15:43:57.364Z,99094.66
2022-12-16T15:46:48.617Z,99104.28
2022-12-16T15:50:03.494Z,99105.28
2022-12-16T15:53:02.964Z,99121.75
2022-12-16T15:56:13.957Z,99114.91
2022-12-16T15:58:59.986Z,99126.25
2022-12-16T16:01:47.284Z,99122.88
2022-12-16T16:04:48.579Z,99128.03
2022-12-16T16:07:42.254Z,99135.19
2022-12-16T16:10:43.647Z,99141.97
2022-12-16T16:13:29.796Z,99148.91
2022-12-16T16:16:15.937Z,99139.50
2022-12-16T16:19:02.574Z,99143.75
2022-12-16T16:21:49.331Z,99145.72
2022-12-16T16:24:35.137Z,99150.69
2022-12-16T16:27:24.750Z,99152.31
2022-12-16T16:30:10.846Z,99156.47
2022-12-16T16:32:56.489Z,99158.44
2022-12-16T16:35:42.515Z,99159.47
2022-12-16T16:38:32.109Z,99156.19
2022-12-16T16:41:18.339Z,99166.41
2022-12-16T16:44:04.123Z,99159.66
2022-12-16T16:46:59.249Z,99163.72
2022-12-16T16:49:59.011Z,99167.31
2022-12-16T16:52:46.721Z,99161.25
2022-12-16T16:56:02.171Z,99168.44
2022-12-16T16:58:52.566Z,99170.31
2022-12-16T17:01:38.956Z,99171.00
2022-12-16T17:04:24.982Z,99174.16
2022-12-16T17:07:11.029Z,99169.19
2022-12-16T17:09:57.030Z,99171.13
2022-12-16T17:12:48.116Z,99172.00
2022-12-16T17:15:44.348Z,99165.53
2022-12-16T17:18:30.502Z,99166.91
2022-12-16T17:21:16.159Z,99168.09
2022-12-16T17:24:02.314Z,99175.66
2022-12-16T17:26:47.743Z,99182.28
2022-12-16T17:29:44.540Z,99174.22
2022-12-16T17:32:31.400Z,99181.47
2022-12-16T17:35:18.240Z,99184.25
2022-12-16T17:38:04.308Z,99190.75
2022-12-16T17:40:50.182Z,99193.34
2022-12-16T17:43:36.531Z,99192.63
2022-12-16T17:46:28.877Z,99193.53
2022-12-16T17:49:17.615Z,99195.72
2022-12-16T17:52:03.612Z,99200.19
2022-12-16T17:54:49.257Z,99199.28
2022-12-16T17:57:35.036Z,99199.78
2022-12-16T18:00:21.515Z,99206.56
2022-12-16T18:03:07.680Z,99209.53
2022-12-16T18:05:53.751Z,99211.75
2022-12-16T18:08:40.954Z,99206.00
2022-12-16T18:11:27.095Z,99211.97
2022-12-16T18:14:12.713Z,99206.91
2022-12-16T18:16:58.706Z,99191.59
2022-12-16T18:19:44.866Z,99199.44
2022-12-16T18:22:30.593Z,99188.19
2022-12-16T18:25:16.684Z,99190.28
2022-12-16T18:28:02.523Z,99189.88
2022-12-16T18:30:48.593Z,99191.44
2022-12-16T18:33:34.961Z,99194.81
2022-12-16T18:36:20.960Z,99202.69
2022-12-16T18:39:07.136Z,99201.97
2022-12-16T18:42:00.800Z,99199.72
2022-12-16T18:44:46.781Z,99204.88
2022-12-16T18:47:32.794Z,99208.88
2022-12-16T18:50:23.675Z,99210.47
2022-12-16T18:53:13.051Z,99225.19
2022-12-16T18:55:59.240Z,99223.59
2022-12-16T18:58:52.298Z,99221.91
2022-12-16T19:01:38.571Z,99233.25
2022-12-16T19:04:24.379Z,99232.44
2022-12-16T19:07:10.415Z,99233.47
2022-12-16T19:09:56.321Z,99238.75
2022-12-16T19:12:42.396Z,99233.66
2022-12-16T19:15:28.817Z,99243.22
2022-12-16T19:18:14.724Z,99240.72
2022-12-16T19:21:00.779Z,99241.63
2022-12-16T19:23:46.640Z,99251.16
2022-12-16T19:26:32.553Z,99247.69
2022-12-16T19:29:18.631Z,99247.69
2022-12-16T19:32:04.306Z,99251.28
2022-12-16T19:34:50.569Z,99257.34
2022-12-16T19:37:37.891Z,99256.66
2022-12-16T19:40:25.040Z,99250.56
2022-12-16T19:43:10.743Z,99258.31
2022-12-16T19:45:56.958Z,99257.56
2022-12-16T19:48:42.887Z,99264.41
2022-12-16T19:51:28.940Z,99266.09
2022-12-16T19:54:14.792Z,99274.66
2022-12-16T19:57:00.888Z,99277.22
2022-12-16T19:59:46.897Z,99273.75
2022-12-16T20:02:33.214Z,99273.31
2022-12-16T20:05:19.058Z,99275.03
2022-12-16T20:08:05.269Z,99275.38
2022-12-16T20:10:51.735Z,99274.41
2022-12-16T20:13:37.994Z,99278.78
2022-12-16T20:16:27.344Z,99279.91
2022-12-16T20:19:14.378Z,99281.56
2022-12-16T20:22:06.255Z,99297.41
2022-12-16T20:24:56.275Z,99292.34
2022-12-16T20:27:43.100Z,99294.00
2022-12-16T20:30:30.211Z,99307.03
2022-12-16T20:33:16.241Z,99309.06
2022-12-16T20:36:02.291Z,99311.06
2022-12-16T20:38:48.320Z,99311.75
2022-12-16T20:41:34.120Z,99310.63
2022-12-16T20:44:20.257Z,99318.09
2022-12-16T20:47:05.811Z,99328.00
2022-12-16T20:49:51.902Z,99323.09
2022-12-16T20:52:37.985Z,99318.66
2022-12-16T20:55:24.656Z,99326.78
2022-12-16T20:58:11.206Z,99325.44
2022-12-16T21:00:57.906Z,99325.56
2022-12-16T21:03:44.652Z,99340.28
2022-12-16T21:06:31.321Z,99335.34
2022-12-16T21:09:17.055Z,99337.13
2022-12-16T21:12:03.024Z,99344.06
2022-12-16T21:14:49.018Z,99344.50
2022-12-16T21:17:34.990Z,99345.94
2022-12-16T21:20:21.047Z,99349.28
2022-12-16T21:23:07.157Z,99346.94
2022-12-16T21:25:53.031Z,99353.09
2022-12-16T21:28:41.759Z,99357.97
2022-12-16T21:31:27.489Z,99351.66
2022-12-16T21:34:13.379Z,99356.56
2022-12-16T21:36:59.274Z,99361.50
2022-12-16T21:39:45.334Z,99366.09
2022-12-16T21:42:35.089Z,99374.84
2022-12-16T21:45:23.461Z,99374.94
2022-12-16T21:48:13.253Z,99379.22
2022-12-16T21:50:59.204Z,99385.19
2022-12-16T21:53:45.402Z,99391.44
2022-12-16T21:56:31.285Z,99390.75
2022-12-16T21:59:17.236Z,99391.88
2022-12-16T22:02:04.288Z,99399.16
2022-12-16T22:04:50.496Z,99397.47
2022-12-16T22:07:37.043Z,99404.66
2022-12-16T22:10:24.156Z,99397.47
2022-12-16T22:13:30.170Z,99399.25
2022-12-16T22:16:18.752Z,99403.88
2022-12-16T22:19:04.852Z,99411.63
2022-12-16T22:21:50.424Z,99420.06
2022-12-16T22:24:36.485Z,99419.94
2022-12-16T22:27:22.562Z,99416.81
2022-12-16T22:30:08.183Z,99412.63
2022-12-16T22:32:54.214Z,99406.69
2022-12-16T22:35:42.345Z,99404.09
2022-12-16T22:38:28.432Z,99403.28
2022-12-16T22:41:16.433Z,99406.69
2022-12-16T22:44:02.931Z,99403.28
2022-12-16T22:46:49.557Z,99402.59
2022-12-16T22:49:35.590Z,99407.88
2022-12-16T22:52:22.166Z,99414.88
2022-12-16T22:55:08.205Z,99413.97
2022-12-16T22:57:54.263Z,99411.38
2022-12-16T23:00:40.213Z,99412.16
2022-12-16T23:03:26.248Z,99408.09
2022-12-16T23:06:12.277Z,99414.50
2022-12-16T23:08:58.185Z,99423.38
2022-12-16T23:11:54.024Z,99423.59
2022-12-16T23:14:43.327Z,99423.69
2022-12-16T23:17:30.925Z,99423.91
2022-12-16T23:20:17.007Z,99430.38
2022-12-16T23:23:02.875Z,99429.94
2022-12-16T23:25:48.823Z,99430.53
2022-12-16T23:28:34.774Z,99428.44
2022-12-16T23:31:20.907Z,99425.75
2022-12-16T23:34:06.560Z,99429.25
2022-12-16T23:36:52.374Z,99437.94
2022-12-16T23:39:39.604Z,99439.75
2022-12-16T23:42:25.511Z,99436.44
2022-12-16T23:45:11.313Z,99437.00
2022-12-16T23:47:57.696Z,99442.69
2022-12-16T23:50:43.778Z,99455.69
2022-12-16T23:53:30.225Z,99450.63
2022-12-16T23:56:20.396Z,99458.28
2022-12-16T23:59:07.139Z,99463.34
